sensor_id;sensor_type;location;lat;lon;timestamp;P1;durP1;ratioP1;P2;durP2;ratioP2
50773;SDS011;36745;48.544;8.918;2023-04-15T00:01:57;11.10;;;5.72;;
50773;SDS011;36745;48.544;8.918;2023-04-15T00:05:18;12.63;;;5.47;;
50773;SDS011;36745;48.544;8.918;2023-04-15T00:08:38;10.43;;;4.55;;
50773;SDS011;36745;48.544;8.918;2023-04-15T00:11:57;12.13;;;4.90;;
50773;SDS011;36745;48.544;8.918;2023-04-15T00:15:17;7.43;;;4.40;;
50773;SDS011;36745;48.544;8.918;2023-04-15T00:18:37;7.53;;;3.92;;
50773;SDS011;36745;48.544;8.918;2023-04-15T00:21:58;8.98;;;4.00;;
50773;SDS011;36745;48.544;8.918;2023-04-15T00:25:19;4.90;;;3.80;;
50773;SDS011;36745;48.544;8.918;2023-04-15T00:28:38;10.20;;;4.45;;
50773;SDS011;36745;48.544;8.918;2023-04-15T00:31:58;6.90;;;3.97;;
50773;SDS011;36745;48.544;8.918;2023-04-15T00:35:21;8.55;;;4.70;;
50773;SDS011;36745;48.544;8.918;2023-04-15T00:38:42;8.73;;;4.60;;
50773;SDS011;36745;48.544;8.918;2023-04-15T00:42:03;7.93;;;3.95;;
50773;SDS011;36745;48.544;8.918;2023-04-15T00:45:23;7.82;;;4.43;;
50773;SDS011;36745;48.544;8.918;2023-04-15T00:48:43;8.77;;;4.47;;
50773;SDS011;36745;48.544;8.918;2023-04-15T00:52:02;8.20;;;4.43;;
50773;SDS011;36745;48.544;8.918;2023-04-15T00:55:22;8.13;;;4.65;;
50773;SDS011;36745;48.544;8.918;2023-04-15T00:58:42;8.82;;;4.38;;
50773;SDS011;36745;48.544;8.918;2023-04-15T01:02:01;7.65;;;4.72;;
50773;SDS011;36745;48.544;8.918;2023-04-15T01:05:21;9.52;;;4.80;;
50773;SDS011;36745;48.544;8.918;2023-04-15T01:08:41;9.55;;;4.65;;
50773;SDS011;36745;48.544;8.918;2023-04-15T01:12:01;9.20;;;4.25;;
50773;SDS011;36745;48.544;8.918;2023-04-15T01:15:23;9.48;;;4.50;;
50773;SDS011;36745;48.544;8.918;2023-04-15T01:18:43;8.65;;;4.35;;
50773;SDS011;36745;48.544;8.918;2023-04-15T01:22:03;7.43;;;4.45;;
50773;SDS011;36745;48.544;8.918;2023-04-15T01:25:30;8.30;;;4.10;;
50773;SDS011;36745;48.544;8.918;2023-04-15T01:28:51;7.47;;;4.65;;
50773;SDS011;36745;48.544;8.918;2023-04-15T01:32:11;10.60;;;7.20;;
50773;SDS011;36745;48.544;8.918;2023-04-15T01:35:31;10.55;;;6.70;;
50773;SDS011;36745;48.544;8.918;2023-04-15T01:38:51;9.70;;;5.47;;
50773;SDS011;36745;48.544;8.918;2023-04-15T01:42:10;8.98;;;5.57;;
50773;SDS011;36745;48.544;8.918;2023-04-15T01:45:30;8.52;;;4.22;;
50773;SDS011;36745;48.544;8.918;2023-04-15T01:48:50;7.07;;;4.63;;
50773;SDS011;36745;48.544;8.918;2023-04-15T01:52:10;10.75;;;4.90;;
50773;SDS011;36745;48.544;8.918;2023-04-15T01:55:30;6.57;;;4.25;;
50773;SDS011;36745;48.544;8.918;2023-04-15T01:58:50;9.68;;;4.78;;
50773;SDS011;36745;48.544;8.918;2023-04-15T02:02:09;7.70;;;3.92;;
50773;SDS011;36745;48.544;8.918;2023-04-15T02:05:29;9.70;;;4.20;;
50773;SDS011;36745;48.544;8.918;2023-04-15T02:08:49;7.15;;;4.30;;
50773;SDS011;36745;48.544;8.918;2023-04-15T02:12:09;8.68;;;4.53;;
50773;SDS011;36745;48.544;8.918;2023-04-15T02:15:29;9.10;;;4.38;;
50773;SDS011;36745;48.544;8.918;2023-04-15T02:18:49;5.50;;;3.95;;
50773;SDS011;36745;48.544;8.918;2023-04-15T02:22:10;7.32;;;3.90;;
50773;SDS011;36745;48.544;8.918;2023-04-15T02:25:36;7.38;;;3.85;;
50773;SDS011;36745;48.544;8.918;2023-04-15T02:28:57;6.43;;;4.05;;
50773;SDS011;36745;48.544;8.918;2023-04-15T02:32:17;6.80;;;4.05;;
50773;SDS011;36745;48.544;8.918;2023-04-15T02:35:38;6.63;;;3.47;;
50773;SDS011;36745;48.544;8.918;2023-04-15T02:39:01;6.72;;;3.75;;
50773;SDS011;36745;48.544;8.918;2023-04-15T02:42:21;7.43;;;3.92;;
50773;SDS011;36745;48.544;8.918;2023-04-15T02:45:40;5.97;;;3.60;;
50773;SDS011;36745;48.544;8.918;2023-04-15T02:49:01;7.88;;;3.78;;
50773;SDS011;36745;48.544;8.918;2023-04-15T02:52:21;9.35;;;4.00;;
50773;SDS011;36745;48.544;8.918;2023-04-15T02:55:42;6.88;;;4.00;;
50773;SDS011;36745;48.544;8.918;2023-04-15T02:59:02;5.60;;;3.60;;
50773;SDS011;36745;48.544;8.918;2023-04-15T03:02:23;8.98;;;4.00;;
50773;SDS011;36745;48.544;8.918;2023-04-15T03:05:43;6.55;;;3.50;;
50773;SDS011;36745;48.544;8.918;2023-04-15T03:09:02;6.25;;;3.58;;
50773;SDS011;36745;48.544;8.918;2023-04-15T03:12:22;5.50;;;3.08;;
50773;SDS011;36745;48.544;8.918;2023-04-15T03:15:42;6.75;;;3.70;;
50773;SDS011;36745;48.544;8.918;2023-04-15T03:19:04;8.93;;;3.40;;
50773;SDS011;36745;48.544;8.918;2023-04-15T03:22:24;5.90;;;3.13;;
50773;SDS011;36745;48.544;8.918;2023-04-15T03:25:44;5.38;;;3.80;;
50773;SDS011;36745;48.544;8.918;2023-04-15T03:29:04;5.00;;;3.15;;
50773;SDS011;36745;48.544;8.918;2023-04-15T03:32:24;7.55;;;3.30;;
50773;SDS011;36745;48.544;8.918;2023-04-15T03:35:45;5.43;;;3.30;;
50773;SDS011;36745;48.544;8.918;2023-04-15T03:39:05;5.10;;;3.40;;
50773;SDS011;36745;48.544;8.918;2023-04-15T03:42:25;4.90;;;3.60;;
50773;SDS011;36745;48.544;8.918;2023-04-15T03:45:45;7.93;;;3.70;;
50773;SDS011;36745;48.544;8.918;2023-04-15T03:49:05;6.97;;;3.63;;
50773;SDS011;36745;48.544;8.918;2023-04-15T03:52:25;5.97;;;3.30;;
50773;SDS011;36745;48.544;8.918;2023-04-15T03:55:45;7.85;;;3.85;;
50773;SDS011;36745;48.544;8.918;2023-04-15T03:59:05;7.13;;;3.65;;
50773;SDS011;36745;48.544;8.918;2023-04-15T04:02:25;5.32;;;3.40;;
50773;SDS011;36745;48.544;8.918;2023-04-15T04:05:46;7.95;;;3.70;;
50773;SDS011;36745;48.544;8.918;2023-04-15T04:09:06;7.40;;;3.38;;
50773;SDS011;36745;48.544;8.918;2023-04-15T04:12:26;10.07;;;3.80;;
50773;SDS011;36745;48.544;8.918;2023-04-15T04:15:46;7.10;;;3.38;;
50773;SDS011;36745;48.544;8.918;2023-04-15T04:19:05;8.65;;;3.13;;
50773;SDS011;36745;48.544;8.918;2023-04-15T04:22:25;5.95;;;3.83;;
50773;SDS011;36745;48.544;8.918;2023-04-15T04:25:45;6.57;;;4.15;;
50773;SDS011;36745;48.544;8.918;2023-04-15T04:29:05;8.05;;;3.38;;
50773;SDS011;36745;48.544;8.918;2023-04-15T04:32:25;7.60;;;3.65;;
50773;SDS011;36745;48.544;8.918;2023-04-15T04:35:44;7.60;;;3.75;;
50773;SDS011;36745;48.544;8.918;2023-04-15T04:39:04;5.88;;;3.30;;
50773;SDS011;36745;48.544;8.918;2023-04-15T04:42:24;9.23;;;3.33;;
50773;SDS011;36745;48.544;8.918;2023-04-15T04:45:44;6.85;;;2.90;;
50773;SDS011;36745;48.544;8.918;2023-04-15T04:49:04;6.05;;;3.50;;
50773;SDS011;36745;48.544;8.918;2023-04-15T04:52:24;7.18;;;3.60;;
50773;SDS011;36745;48.544;8.918;2023-04-15T04:55:43;7.85;;;3.92;;
50773;SDS011;36745;48.544;8.918;2023-04-15T04:59:03;9.13;;;3.38;;
50773;SDS011;36745;48.544;8.918;2023-04-15T05:02:23;6.65;;;3.58;;
50773;SDS011;36745;48.544;8.918;2023-04-15T05:05:45;12.57;;;3.67;;
50773;SDS011;36745;48.544;8.918;2023-04-15T05:09:04;6.75;;;3.60;;
50773;SDS011;36745;48.544;8.918;2023-04-15T05:12:24;6.22;;;4.25;;
50773;SDS011;36745;48.544;8.918;2023-04-15T05:15:44;6.00;;;3.63;;
50773;SDS011;36745;48.544;8.918;2023-04-15T05:19:04;6.03;;;3.38;;
50773;SDS011;36745;48.544;8.918;2023-04-15T05:22:24;14.90;;;5.10;;
50773;SDS011;36745;48.544;8.918;2023-04-15T05:25:44;12.65;;;7.97;;
50773;SDS011;36745;48.544;8.918;2023-04-15T05:29:03;11.95;;;5.50;;
50773;SDS011;36745;48.544;8.918;2023-04-15T05:32:23;12.98;;;5.60;;
50773;SDS011;36745;48.544;8.918;2023-04-15T05:35:43;9.38;;;5.93;;
50773;SDS011;36745;48.544;8.918;2023-04-15T05:39:03;10.27;;;4.15;;
50773;SDS011;36745;48.544;8.918;2023-04-15T05:42:23;9.38;;;4.68;;
50773;SDS011;36745;48.544;8.918;2023-04-15T05:45:42;13.02;;;5.30;;
50773;SDS011;36745;48.544;8.918;2023-04-15T05:49:02;10.20;;;5.60;;
50773;SDS011;36745;48.544;8.918;2023-04-15T05:52:22;11.63;;;5.47;;
50773;SDS011;36745;48.544;8.918;2023-04-15T05:55:42;16.10;;;5.68;;
50773;SDS011;36745;48.544;8.918;2023-04-15T05:59:01;17.77;;;5.80;;
50773;SDS011;36745;48.544;8.918;2023-04-15T06:02:22;7.13;;;4.93;;
50773;SDS011;36745;48.544;8.918;2023-04-15T06:05:42;24.58;;;13.48;;
50773;SDS011;36745;48.544;8.918;2023-04-15T06:09:03;35.08;;;20.48;;
50773;SDS011;36745;48.544;8.918;2023-04-15T06:12:22;32.47;;;18.52;;
50773;SDS011;36745;48.544;8.918;2023-04-15T06:15:42;50.90;;;24.55;;
50773;SDS011;36745;48.544;8.918;2023-04-15T06:19:02;74.18;;;37.35;;
50773;SDS011;36745;48.544;8.918;2023-04-15T06:22:22;56.22;;;28.23;;
50773;SDS011;36745;48.544;8.918;2023-04-15T06:25:42;60.42;;;32.42;;
50773;SDS011;36745;48.544;8.918;2023-04-15T06:29:02;33.88;;;20.92;;
50773;SDS011;36745;48.544;8.918;2023-04-15T06:32:22;36.45;;;19.90;;
50773;SDS011;36745;48.544;8.918;2023-04-15T06:35:42;38.65;;;22.65;;
50773;SDS011;36745;48.544;8.918;2023-04-15T06:39:01;23.25;;;10.25;;
50773;SDS011;36745;48.544;8.918;2023-04-15T06:42:21;14.30;;;6.72;;
50773;SDS011;36745;48.544;8.918;2023-04-15T06:45:41;21.80;;;9.82;;
50773;SDS011;36745;48.544;8.918;2023-04-15T06:49:01;19.70;;;9.13;;
50773;SDS011;36745;48.544;8.918;2023-04-15T06:52:21;19.67;;;7.88;;
50773;SDS011;36745;48.544;8.918;2023-04-15T06:55:41;19.88;;;11.40;;
50773;SDS011;36745;48.544;8.918;2023-04-15T06:59:01;18.67;;;11.13;;
50773;SDS011;36745;48.544;8.918;2023-04-15T07:02:21;20.17;;;11.63;;
50773;SDS011;36745;48.544;8.918;2023-04-15T07:05:41;20.23;;;10.48;;
50773;SDS011;36745;48.544;8.918;2023-04-15T07:09:01;16.23;;;9.20;;
50773;SDS011;36745;48.544;8.918;2023-04-15T07:12:21;13.65;;;6.25;;
50773;SDS011;36745;48.544;8.918;2023-04-15T07:15:41;9.43;;;5.00;;
50773;SDS011;36745;48.544;8.918;2023-04-15T07:19:01;8.52;;;4.45;;
50773;SDS011;36745;48.544;8.918;2023-04-15T07:22:21;7.95;;;5.00;;
50773;SDS011;36745;48.544;8.918;2023-04-15T07:25:40;7.90;;;4.72;;
50773;SDS011;36745;48.544;8.918;2023-04-15T07:29:00;7.65;;;5.05;;
50773;SDS011;36745;48.544;8.918;2023-04-15T07:32:20;8.45;;;4.80;;
50773;SDS011;36745;48.544;8.918;2023-04-15T07:35:40;9.35;;;4.30;;
50773;SDS011;36745;48.544;8.918;2023-04-15T07:39:00;6.05;;;4.03;;
50773;SDS011;36745;48.544;8.918;2023-04-15T07:42:21;8.27;;;4.40;;
50773;SDS011;36745;48.544;8.918;2023-04-15T07:45:41;15.57;;;6.70;;
50773;SDS011;36745;48.544;8.918;2023-04-15T07:49:01;11.07;;;4.05;;
50773;SDS011;36745;48.544;8.918;2023-04-15T07:52:21;8.95;;;4.63;;
50773;SDS011;36745;48.544;8.918;2023-04-15T07:55:40;8.68;;;4.07;;
50773;SDS011;36745;48.544;8.918;2023-04-15T07:59:00;7.10;;;4.38;;
50773;SDS011;36745;48.544;8.918;2023-04-15T08:05:43;8.75;;;4.72;;
50773;SDS011;36745;48.544;8.918;2023-04-15T08:09:04;9.68;;;4.50;;
50773;SDS011;36745;48.544;8.918;2023-04-15T08:12:24;9.50;;;4.40;;
50773;SDS011;36745;48.544;8.918;2023-04-15T08:15:43;11.68;;;4.18;;
50773;SDS011;36745;48.544;8.918;2023-04-15T08:19:03;8.57;;;4.18;;
50773;SDS011;36745;48.544;8.918;2023-04-15T08:22:24;8.95;;;4.60;;
50773;SDS011;36745;48.544;8.918;2023-04-15T08:25:43;9.48;;;4.85;;
50773;SDS011;36745;48.544;8.918;2023-04-15T08:29:03;9.57;;;5.15;;
50773;SDS011;36745;48.544;8.918;2023-04-15T08:32:23;8.50;;;4.47;;
50773;SDS011;36745;48.544;8.918;2023-04-15T08:35:45;22.48;;;5.60;;
50773;SDS011;36745;48.544;8.918;2023-04-15T08:39:05;13.95;;;5.55;;
50773;SDS011;36745;48.544;8.918;2023-04-15T08:42:35;13.50;;;5.65;;
50773;SDS011;36745;48.544;8.918;2023-04-15T08:45:59;31.58;;;6.35;;
50773;SDS011;36745;48.544;8.918;2023-04-15T08:49:20;57.63;;;8.48;;
50773;SDS011;36745;48.544;8.918;2023-04-15T08:52:41;34.88;;;7.65;;
50773;SDS011;36745;48.544;8.918;2023-04-15T08:56:02;37.55;;;10.90;;
50773;SDS011;36745;48.544;8.918;2023-04-15T08:59:24;12.20;;;4.93;;
50773;SDS011;36745;48.544;8.918;2023-04-15T09:02:44;24.88;;;6.05;;
50773;SDS011;36745;48.544;8.918;2023-04-15T09:06:04;19.30;;;4.88;;
50773;SDS011;36745;48.544;8.918;2023-04-15T09:09:25;19.75;;;6.80;;
50773;SDS011;36745;48.544;8.918;2023-04-15T09:12:45;14.95;;;5.45;;
50773;SDS011;36745;48.544;8.918;2023-04-15T09:16:05;43.72;;;8.63;;
50773;SDS011;36745;48.544;8.918;2023-04-15T09:19:25;19.02;;;5.68;;
50773;SDS011;36745;48.544;8.918;2023-04-15T09:22:45;43.38;;;10.48;;
50773;SDS011;36745;48.544;8.918;2023-04-15T09:26:06;14.93;;;6.13;;
50773;SDS011;36745;48.544;8.918;2023-04-15T09:29:26;14.88;;;5.65;;
50773;SDS011;36745;48.544;8.918;2023-04-15T09:32:50;8.93;;;5.35;;
50773;SDS011;36745;48.544;8.918;2023-04-15T09:36:11;7.53;;;4.68;;
50773;SDS011;36745;48.544;8.918;2023-04-15T09:39:50;8.82;;;4.47;;
50773;SDS011;36745;48.544;8.918;2023-04-15T09:43:10;8.15;;;4.20;;
50773;SDS011;36745;48.544;8.918;2023-04-15T09:46:44;10.20;;;4.75;;
50773;SDS011;36745;48.544;8.918;2023-04-15T09:50:04;17.45;;;6.65;;
50773;SDS011;36745;48.544;8.918;2023-04-15T09:53:24;89.20;;;11.20;;
50773;SDS011;36745;48.544;8.918;2023-04-15T09:56:44;18.75;;;5.20;;
50773;SDS011;36745;48.544;8.918;2023-04-15T10:00:04;37.40;;;7.93;;
50773;SDS011;36745;48.544;8.918;2023-04-15T10:03:30;12.27;;;4.30;;
50773;SDS011;36745;48.544;8.918;2023-04-15T10:06:52;27.38;;;5.70;;
50773;SDS011;36745;48.544;8.918;2023-04-15T10:13:38;7.15;;;3.13;;
50773;SDS011;36745;48.544;8.918;2023-04-15T10:16:59;15.35;;;4.63;;
50773;SDS011;36745;48.544;8.918;2023-04-15T10:20:21;10.10;;;4.73;;
50773;SDS011;36745;48.544;8.918;2023-04-15T10:23:41;7.28;;;2.80;;
50773;SDS011;36745;48.544;8.918;2023-04-15T10:27:04;10.50;;;3.28;;
50773;SDS011;36745;48.544;8.918;2023-04-15T10:30:24;9.27;;;3.43;;
50773;SDS011;36745;48.544;8.918;2023-04-15T10:33:44;8.55;;;2.13;;
50773;SDS011;36745;48.544;8.918;2023-04-15T10:37:08;8.52;;;2.90;;
50773;SDS011;36745;48.544;8.918;2023-04-15T10:40:29;12.40;;;2.83;;
50773;SDS011;36745;48.544;8.918;2023-04-15T10:43:55;8.25;;;2.35;;
50773;SDS011;36745;48.544;8.918;2023-04-15T10:47:19;11.43;;;2.47;;
50773;SDS011;36745;48.544;8.918;2023-04-15T10:50:40;6.95;;;2.33;;
50773;SDS011;36745;48.544;8.918;2023-04-15T10:54:00;15.98;;;2.55;;
50773;SDS011;36745;48.544;8.918;2023-04-15T10:57:23;7.57;;;2.50;;
50773;SDS011;36745;48.544;8.918;2023-04-15T11:00:43;23.90;;;5.43;;
50773;SDS011;36745;48.544;8.918;2023-04-15T11:04:10;14.77;;;6.15;;
50773;SDS011;36745;48.544;8.918;2023-04-15T11:10:55;4.88;;;2.63;;
50773;SDS011;36745;48.544;8.918;2023-04-15T11:14:15;5.03;;;1.88;;
50773;SDS011;36745;48.544;8.918;2023-04-15T11:17:35;14.07;;;3.30;;
50773;SDS011;36745;48.544;8.918;2023-04-15T11:20:59;7.78;;;2.28;;
50773;SDS011;36745;48.544;8.918;2023-04-15T11:24:26;27.48;;;3.33;;
50773;SDS011;36745;48.544;8.918;2023-04-15T11:27:46;12.32;;;2.50;;
50773;SDS011;36745;48.544;8.918;2023-04-15T11:31:06;5.68;;;1.65;;
50773;SDS011;36745;48.544;8.918;2023-04-15T11:34:28;21.25;;;2.65;;
50773;SDS011;36745;48.544;8.918;2023-04-15T11:37:50;6.50;;;1.83;;
50773;SDS011;36745;48.544;8.918;2023-04-15T11:41:10;10.57;;;5.07;;
50773;SDS011;36745;48.544;8.918;2023-04-15T11:44:29;7.28;;;3.47;;
50773;SDS011;36745;48.544;8.918;2023-04-15T11:47:49;6.30;;;2.35;;
50773;SDS011;36745;48.544;8.918;2023-04-15T11:51:09;6.40;;;2.33;;
50773;SDS011;36745;48.544;8.918;2023-04-15T11:54:30;16.65;;;3.40;;
50773;SDS011;36745;48.544;8.918;2023-04-15T11:58:10;37.22;;;5.78;;
50773;SDS011;36745;48.544;8.918;2023-04-15T12:01:32;27.30;;;3.90;;
50773;SDS011;36745;48.544;8.918;2023-04-15T12:05:01;20.92;;;3.58;;
50773;SDS011;36745;48.544;8.918;2023-04-15T12:08:22;7.60;;;2.67;;
50773;SDS011;36745;48.544;8.918;2023-04-15T12:11:43;8.45;;;2.50;;
50773;SDS011;36745;48.544;8.918;2023-04-15T12:15:04;11.90;;;3.97;;
50773;SDS011;36745;48.544;8.918;2023-04-15T12:18:27;46.20;;;14.43;;
50773;SDS011;36745;48.544;8.918;2023-04-15T12:21:48;5.57;;;3.08;;
50773;SDS011;36745;48.544;8.918;2023-04-15T12:25:07;44.88;;;5.68;;
50773;SDS011;36745;48.544;8.918;2023-04-15T12:28:29;5.38;;;3.08;;
50773;SDS011;36745;48.544;8.918;2023-04-15T12:31:56;6.15;;;2.15;;
50773;SDS011;36745;48.544;8.918;2023-04-15T12:35:17;8.95;;;2.88;;
50773;SDS011;36745;48.544;8.918;2023-04-15T12:38:39;15.00;;;7.88;;
50773;SDS011;36745;48.544;8.918;2023-04-15T12:41:59;10.38;;;3.30;;
50773;SDS011;36745;48.544;8.918;2023-04-15T12:45:19;13.77;;;3.30;;
50773;SDS011;36745;48.544;8.918;2023-04-15T12:48:39;5.18;;;2.80;;
50773;SDS011;36745;48.544;8.918;2023-04-15T12:52:00;14.52;;;8.73;;
50773;SDS011;36745;48.544;8.918;2023-04-15T12:55:20;11.90;;;4.40;;
50773;SDS011;36745;48.544;8.918;2023-04-15T12:58:40;10.07;;;3.00;;
50773;SDS011;36745;48.544;8.918;2023-04-15T13:02:00;10.02;;;4.15;;
50773;SDS011;36745;48.544;8.918;2023-04-15T13:05:21;14.70;;;3.88;;
50773;SDS011;36745;48.544;8.918;2023-04-15T13:08:41;21.40;;;4.03;;
50773;SDS011;36745;48.544;8.918;2023-04-15T13:12:00;6.97;;;3.78;;
50773;SDS011;36745;48.544;8.918;2023-04-15T13:15:24;13.25;;;3.33;;
50773;SDS011;36745;48.544;8.918;2023-04-15T13:18:44;28.42;;;5.93;;
50773;SDS011;36745;48.544;8.918;2023-04-15T13:22:10;11.60;;;4.22;;
50773;SDS011;36745;48.544;8.918;2023-04-15T13:25:29;33.22;;;5.05;;
50773;SDS011;36745;48.544;8.918;2023-04-15T13:28:49;12.88;;;3.97;;
50773;SDS011;36745;48.544;8.918;2023-04-15T13:32:09;59.65;;;5.55;;
50773;SDS011;36745;48.544;8.918;2023-04-15T13:35:30;16.02;;;4.13;;
50773;SDS011;36745;48.544;8.918;2023-04-15T13:38:50;11.40;;;5.03;;
50773;SDS011;36745;48.544;8.918;2023-04-15T13:42:10;7.43;;;3.75;;
50773;SDS011;36745;48.544;8.918;2023-04-15T13:45:30;17.83;;;4.32;;
50773;SDS011;36745;48.544;8.918;2023-04-15T13:48:50;15.88;;;4.07;;
50773;SDS011;36745;48.544;8.918;2023-04-15T13:52:10;10.70;;;3.60;;
50773;SDS011;36745;48.544;8.918;2023-04-15T13:55:30;19.38;;;4.95;;
50773;SDS011;36745;48.544;8.918;2023-04-15T13:58:50;30.08;;;4.22;;
50773;SDS011;36745;48.544;8.918;2023-04-15T14:02:11;8.20;;;3.28;;
50773;SDS011;36745;48.544;8.918;2023-04-15T14:05:31;10.52;;;4.38;;
50773;SDS011;36745;48.544;8.918;2023-04-15T14:08:50;10.52;;;5.30;;
50773;SDS011;36745;48.544;8.918;2023-04-15T14:12:10;19.10;;;6.97;;
50773;SDS011;36745;48.544;8.918;2023-04-15T14:15:30;8.93;;;4.60;;
50773;SDS011;36745;48.544;8.918;2023-04-15T14:18:50;5.50;;;4.40;;
50773;SDS011;36745;48.544;8.918;2023-04-15T14:22:10;7.15;;;3.70;;
50773;SDS011;36745;48.544;8.918;2023-04-15T14:25:30;7.05;;;4.28;;
50773;SDS011;36745;48.544;8.918;2023-04-15T14:28:50;9.48;;;4.30;;
50773;SDS011;36745;48.544;8.918;2023-04-15T14:32:09;6.28;;;3.10;;
50773;SDS011;36745;48.544;8.918;2023-04-15T14:35:29;21.40;;;5.07;;
50773;SDS011;36745;48.544;8.918;2023-04-15T14:38:49;8.57;;;3.35;;
50773;SDS011;36745;48.544;8.918;2023-04-15T14:42:09;17.63;;;3.63;;
50773;SDS011;36745;48.544;8.918;2023-04-15T14:45:29;49.40;;;8.40;;
50773;SDS011;36745;48.544;8.918;2023-04-15T14:48:49;19.63;;;10.55;;
50773;SDS011;36745;48.544;8.918;2023-04-15T14:52:09;5.00;;;3.22;;
50773;SDS011;36745;48.544;8.918;2023-04-15T14:55:29;15.77;;;4.35;;
50773;SDS011;36745;48.544;8.918;2023-04-15T14:58:48;13.20;;;4.40;;
50773;SDS011;36745;48.544;8.918;2023-04-15T15:02:11;37.78;;;5.57;;
50773;SDS011;36745;48.544;8.918;2023-04-15T15:05:31;26.25;;;6.75;;
50773;SDS011;36745;48.544;8.918;2023-04-15T15:08:51;32.45;;;6.35;;
50773;SDS011;36745;48.544;8.918;2023-04-15T15:12:11;29.85;;;6.55;;
50773;SDS011;36745;48.544;8.918;2023-04-15T15:15:31;32.55;;;5.47;;
50773;SDS011;36745;48.544;8.918;2023-04-15T15:18:51;23.15;;;8.63;;
50773;SDS011;36745;48.544;8.918;2023-04-15T15:22:11;10.68;;;4.53;;
50773;SDS011;36745;48.544;8.918;2023-04-15T15:25:31;8.82;;;3.33;;
50773;SDS011;36745;48.544;8.918;2023-04-15T15:28:51;10.15;;;4.93;;
50773;SDS011;36745;48.544;8.918;2023-04-15T15:32:11;10.80;;;4.43;;
50773;SDS011;36745;48.544;8.918;2023-04-15T15:35:31;6.93;;;3.95;;
50773;SDS011;36745;48.544;8.918;2023-04-15T15:38:51;8.32;;;3.60;;
50773;SDS011;36745;48.544;8.918;2023-04-15T15:42:10;14.73;;;3.15;;
50773;SDS011;36745;48.544;8.918;2023-04-15T15:45:30;18.60;;;9.07;;
50773;SDS011;36745;48.544;8.918;2023-04-15T15:48:50;10.02;;;6.13;;
50773;SDS011;36745;48.544;8.918;2023-04-15T15:52:10;7.18;;;3.80;;
50773;SDS011;36745;48.544;8.918;2023-04-15T15:55:29;6.45;;;3.97;;
50773;SDS011;36745;48.544;8.918;2023-04-15T15:58:49;9.50;;;4.68;;
50773;SDS011;36745;48.544;8.918;2023-04-15T16:02:10;10.40;;;4.40;;
50773;SDS011;36745;48.544;8.918;2023-04-15T16:05:30;9.45;;;5.00;;
50773;SDS011;36745;48.544;8.918;2023-04-15T16:08:50;8.25;;;3.88;;
50773;SDS011;36745;48.544;8.918;2023-04-15T16:12:09;8.23;;;3.72;;
50773;SDS011;36745;48.544;8.918;2023-04-15T16:15:29;9.30;;;3.50;;
50773;SDS011;36745;48.544;8.918;2023-04-15T16:18:49;6.88;;;3.92;;
50773;SDS011;36745;48.544;8.918;2023-04-15T16:22:09;5.10;;;3.60;;
50773;SDS011;36745;48.544;8.918;2023-04-15T16:25:29;4.95;;;2.85;;
50773;SDS011;36745;48.544;8.918;2023-04-15T16:28:48;7.43;;;4.05;;
50773;SDS011;36745;48.544;8.918;2023-04-15T16:32:08;6.30;;;4.88;;
50773;SDS011;36745;48.544;8.918;2023-04-15T16:35:28;9.55;;;5.00;;
50773;SDS011;36745;48.544;8.918;2023-04-15T16:38:48;6.82;;;3.10;;
50773;SDS011;36745;48.544;8.918;2023-04-15T16:42:08;5.85;;;3.97;;
50773;SDS011;36745;48.544;8.918;2023-04-15T16:45:28;4.15;;;2.33;;
50773;SDS011;36745;48.544;8.918;2023-04-15T16:48:48;8.50;;;3.22;;
50773;SDS011;36745;48.544;8.918;2023-04-15T16:52:11;4.72;;;2.55;;
50773;SDS011;36745;48.544;8.918;2023-04-15T16:55:31;5.55;;;3.20;;
50773;SDS011;36745;48.544;8.918;2023-04-15T16:58:50;5.05;;;2.83;;
50773;SDS011;36745;48.544;8.918;2023-04-15T17:02:13;6.80;;;3.55;;
50773;SDS011;36745;48.544;8.918;2023-04-15T17:05:33;4.57;;;2.60;;
50773;SDS011;36745;48.544;8.918;2023-04-15T17:08:53;4.55;;;2.70;;
50773;SDS011;36745;48.544;8.918;2023-04-15T17:12:13;4.88;;;1.90;;
50773;SDS011;36745;48.544;8.918;2023-04-15T17:15:33;2.08;;;1.73;;
50773;SDS011;36745;48.544;8.918;2023-04-15T17:18:52;5.20;;;1.88;;
50773;SDS011;36745;48.544;8.918;2023-04-15T17:22:12;3.08;;;2.10;;
50773;SDS011;36745;48.544;8.918;2023-04-15T17:25:32;4.38;;;2.17;;
50773;SDS011;36745;48.544;8.918;2023-04-15T17:28:52;3.78;;;2.65;;
50773;SDS011;36745;48.544;8.918;2023-04-15T17:32:12;5.22;;;2.70;;
50773;SDS011;36745;48.544;8.918;2023-04-15T17:35:32;4.15;;;2.92;;
50773;SDS011;36745;48.544;8.918;2023-04-15T17:38:53;3.55;;;2.30;;
50773;SDS011;36745;48.544;8.918;2023-04-15T17:42:14;2.72;;;2.42;;
50773;SDS011;36745;48.544;8.918;2023-04-15T17:45:34;5.05;;;3.10;;
50773;SDS011;36745;48.544;8.918;2023-04-15T17:48:53;3.13;;;2.90;;
50773;SDS011;36745;48.544;8.918;2023-04-15T17:52:13;5.32;;;3.97;;
50773;SDS011;36745;48.544;8.918;2023-04-15T17:55:33;3.80;;;3.38;;
50773;SDS011;36745;48.544;8.918;2023-04-15T17:58:54;8.57;;;4.75;;
50773;SDS011;36745;48.544;8.918;2023-04-15T18:02:14;4.57;;;3.40;;
50773;SDS011;36745;48.544;8.918;2023-04-15T18:05:34;4.00;;;3.42;;
50773;SDS011;36745;48.544;8.918;2023-04-15T18:08:53;5.45;;;3.65;;
50773;SDS011;36745;48.544;8.918;2023-04-15T18:12:13;4.18;;;3.20;;
50773;SDS011;36745;48.544;8.918;2023-04-15T18:15:33;4.10;;;3.70;;
50773;SDS011;36745;48.544;8.918;2023-04-15T18:18:53;5.72;;;4.00;;
50773;SDS011;36745;48.544;8.918;2023-04-15T18:22:12;4.80;;;3.95;;
50773;SDS011;36745;48.544;8.918;2023-04-15T18:25:32;16.23;;;14.27;;
50773;SDS011;36745;48.544;8.918;2023-04-15T18:28:53;5.40;;;4.07;;
50773;SDS011;36745;48.544;8.918;2023-04-15T18:32:13;4.63;;;4.20;;
50773;SDS011;36745;48.544;8.918;2023-04-15T18:35:33;5.30;;;4.63;;
50773;SDS011;36745;48.544;8.918;2023-04-15T18:38:53;4.50;;;3.90;;
50773;SDS011;36745;48.544;8.918;2023-04-15T18:42:12;5.22;;;4.20;;
50773;SDS011;36745;48.544;8.918;2023-04-15T18:45:32;5.10;;;4.07;;
50773;SDS011;36745;48.544;8.918;2023-04-15T18:48:52;6.00;;;4.80;;
50773;SDS011;36745;48.544;8.918;2023-04-15T18:52:12;6.68;;;4.85;;
50773;SDS011;36745;48.544;8.918;2023-04-15T18:55:32;8.18;;;7.38;;
50773;SDS011;36745;48.544;8.918;2023-04-15T18:58:51;8.07;;;6.00;;
50773;SDS011;36745;48.544;8.918;2023-04-15T19:02:11;8.32;;;6.40;;
50773;SDS011;36745;48.544;8.918;2023-04-15T19:05:31;5.88;;;5.38;;
50773;SDS011;36745;48.544;8.918;2023-04-15T19:08:51;4.45;;;3.97;;
50773;SDS011;36745;48.544;8.918;2023-04-15T19:12:10;3.88;;;3.50;;
50773;SDS011;36745;48.544;8.918;2023-04-15T19:15:30;3.47;;;3.17;;
50773;SDS011;36745;48.544;8.918;2023-04-15T19:18:50;4.78;;;3.38;;
50773;SDS011;36745;48.544;8.918;2023-04-15T19:22:10;3.10;;;2.88;;
50773;SDS011;36745;48.544;8.918;2023-04-15T19:25:30;3.60;;;3.20;;
50773;SDS011;36745;48.544;8.918;2023-04-15T19:28:50;3.10;;;2.80;;
50773;SDS011;36745;48.544;8.918;2023-04-15T19:32:12;3.47;;;3.17;;
50773;SDS011;36745;48.544;8.918;2023-04-15T19:35:32;3.50;;;3.20;;
50773;SDS011;36745;48.544;8.918;2023-04-15T19:38:52;3.70;;;3.10;;
50773;SDS011;36745;48.544;8.918;2023-04-15T19:42:12;4.45;;;3.20;;
50773;SDS011;36745;48.544;8.918;2023-04-15T19:45:32;3.58;;;3.17;;
50773;SDS011;36745;48.544;8.918;2023-04-15T19:48:53;3.55;;;3.25;;
50773;SDS011;36745;48.544;8.918;2023-04-15T19:52:13;4.32;;;3.63;;
50773;SDS011;36745;48.544;8.918;2023-04-15T19:55:34;6.00;;;5.50;;
50773;SDS011;36745;48.544;8.918;2023-04-15T19:58:54;5.32;;;4.57;;
50773;SDS011;36745;48.544;8.918;2023-04-15T20:02:14;7.07;;;4.07;;
50773;SDS011;36745;48.544;8.918;2023-04-15T20:05:33;5.75;;;3.80;;
50773;SDS011;36745;48.544;8.918;2023-04-15T20:08:53;7.78;;;4.93;;
50773;SDS011;36745;48.544;8.918;2023-04-15T20:12:13;5.55;;;4.75;;